Time;durP1;ratioP1;P1;durP2;ratioP2;P2;SDS_P1;SDS_P2;PMS_P1;PMS_P2;Temp;Humidity;BMP_temperature;BMP_pressure;BME280_temperature;BME280_humidity;BME280_pressure;Samples;Min_cycle;Max_cycle;Signal;HPM_P1;HPM_P2
2023/04/30 00:01:26;;;;;;;8.13;3.00;;;5.30;99.90;;;;;;5090539;28;20199;-52
2023/04/30 00:03:54;;;;;;;8.37;3.03;;;5.30;99.90;;;;;;5065499;28;20228;-53
2023/04/30 00:06:21;;;;;;;5.60;2.57;;;5.30;99.90;;;;;;5077894;28;20263;-53
2023/04/30 00:08:48;;;;;;;7.30;3.23;;;5.30;99.90;;;;;;5078019;28;20201;-51
2023/04/30 00:11:15;;;;;;;11.83;3.20;;;5.30;99.90;;;;;;5075864;28;20193;-51
2023/04/30 00:13:43;;;;;;;11.17;3.20;;;5.30;99.90;;;;;;5080385;28;20186;-51
2023/04/30 00:16:09;;;;;;;4.30;2.43;;;5.30;99.90;;;;;;5070664;28;20301;-51
2023/04/30 00:18:38;;;;;;;5.63;2.53;;;5.30;99.90;;;;;;5068789;28;20656;-52
2023/04/30 00:21:06;;;;;;;7.17;2.90;;;5.20;99.90;;;;;;5081181;28;20194;-51
2023/04/30 00:23:33;;;;;;;7.50;3.40;;;5.20;99.90;;;;;;5070164;28;20707;-51
2023/04/30 00:25:59;;;;;;;11.07;3.63;;;5.20;99.90;;;;;;5075492;28;20925;-48
2023/04/30 00:28:26;;;;;;;9.77;3.90;;;5.20;99.90;;;;;;5084095;28;20207;-50
2023/04/30 00:30:54;;;;;;;6.37;3.10;;;5.10;99.90;;;;;;5078935;28;20205;-51
2023/04/30 00:33:20;;;;;;;9.10;3.40;;;5.10;99.90;;;;;;5068597;28;20674;-54
2023/04/30 00:35:47;;;;;;;12.20;3.53;;;5.00;99.90;;;;;;5078512;28;20198;-48
2023/04/30 00:38:16;;;;;;;8.27;3.10;;;5.00;99.90;;;;;;5063270;28;20961;-52
2023/04/30 00:40:43;;;;;;;7.37;3.10;;;5.00;99.90;;;;;;5079573;28;20187;-50
2023/04/30 00:43:10;;;;;;;7.30;3.63;;;5.00;99.90;;;;;;5081898;28;20294;-49
2023/04/30 00:45:37;;;;;;;7.63;3.67;;;4.90;99.90;;;;;;5080391;28;20190;-48
2023/04/30 00:48:05;;;;;;;7.07;3.33;;;4.90;99.90;;;;;;5058658;28;20221;-52
2023/04/30 00:50:32;;;;;;;8.67;3.77;;;4.90;99.90;;;;;;5078203;28;20193;-47
2023/04/30 00:53:00;;;;;;;6.23;3.30;;;4.90;99.90;;;;;;5065149;28;22075;-50
2023/04/30 00:55:29;;;;;;;6.50;2.97;;;4.90;99.90;;;;;;5076140;28;20342;-51
2023/04/30 00:57:56;;;;;;;9.10;3.90;;;4.90;99.90;;;;;;5078259;28;20245;-52
2023/04/30 01:00:25;;;;;;;5.23;3.43;;;4.80;99.90;;;;;;5083299;28;20680;-54
2023/04/30 01:02:52;;;;;;;11.43;4.17;;;4.80;99.90;;;;;;5071031;28;20652;-46
2023/04/30 01:05:19;;;;;;;11.93;3.57;;;4.90;99.90;;;;;;5059802;28;20198;-47
2023/04/30 01:07:46;;;;;;;7.77;3.00;;;4.80;99.90;;;;;;5077288;28;20803;-50
2023/04/30 01:10:14;;;;;;;6.93;3.57;;;4.80;99.90;;;;;;5067702;28;20202;-52
2023/04/30 01:12:47;;;;;;;10.60;3.60;;;4.70;99.90;;;;;;5080572;28;20274;-52
2023/04/30 01:15:22;;;;;;;10.07;4.13;;;4.70;99.90;;;;;;5074938;28;20174;-54
2023/04/30 01:17:56;;;;;;;9.40;3.37;;;4.70;99.90;;;;;;5066444;28;20225;-50
2023/04/30 01:20:24;;;;;;;5.83;2.83;;;4.60;99.90;;;;;;5058723;28;20312;-47
2023/04/30 01:22:57;;;;;;;7.87;3.17;;;4.60;99.90;;;;;;5079149;28;20186;-48
2023/04/30 01:25:53;;;;;;;4.70;3.50;;;4.60;99.90;;;;;;5071706;28;20646;-55
2023/04/30 01:28:23;;;;;;;3.73;2.43;;;4.60;99.90;;;;;;5075996;28;20190;-48
2023/04/30 01:30:51;;;;;;;9.63;3.50;;;4.50;99.90;;;;;;5077803;28;20689;-51
2023/04/30 01:33:18;;;;;;;6.93;3.30;;;4.50;99.90;;;;;;5066112;28;20704;-50
2023/04/30 01:36:10;;;;;;;7.57;3.33;;;4.50;99.90;;;;;;5061905;28;20210;-51
2023/04/30 01:39:06;;;;;;;9.33;3.23;;;4.40;99.90;;;;;;5078791;28;20248;-52
2023/04/30 01:41:39;;;;;;;8.30;3.50;;;4.40;99.90;;;;;;5069224;28;20233;-50
2023/04/30 01:44:24;;;;;;;6.70;3.37;;;4.40;99.90;;;;;;5080166;28;20213;-49
2023/04/30 01:46:58;;;;;;;7.40;3.33;;;4.30;99.90;;;;;;5068556;28;20303;-49
2023/04/30 01:49:32;;;;;;;9.33;3.77;;;4.30;99.90;;;;;;5054955;28;20579;-50
2023/04/30 01:52:09;;;;;;;8.60;3.30;;;4.20;99.90;;;;;;5077875;28;20243;-51
2023/04/30 01:54:43;;;;;;;7.27;3.10;;;4.20;99.90;;;;;;5083316;28;20211;-52
2023/04/30 01:57:17;;;;;;;5.50;3.03;;;4.10;99.90;;;;;;5072384;28;20374;-54
2023/04/30 01:59:47;;;;;;;6.33;3.20;;;4.10;99.90;;;;;;5073808;28;20190;-50
2023/04/30 02:02:15;;;;;;;10.10;3.53;;;4.10;99.90;;;;;;5072658;28;20189;-48
2023/04/30 02:04:42;;;;;;;6.43;3.17;;;4.10;99.90;;;;;;5067052;28;20217;-52
2023/04/30 02:07:09;;;;;;;6.30;2.93;;;4.10;99.90;;;;;;5077506;28;20279;-54
2023/04/30 02:09:36;;;;;;;6.97;3.00;;;4.00;99.90;;;;;;5083347;28;20541;-50
2023/04/30 02:12:03;;;;;;;7.80;2.83;;;3.90;99.90;;;;;;5082057;28;20194;-51
2023/04/30 02:14:31;;;;;;;5.27;3.33;;;3.90;99.90;;;;;;5070952;28;20641;-49
2023/04/30 02:17:00;;;;;;;5.83;3.33;;;3.90;99.90;;;;;;5080413;28;20259;-54
2023/04/30 02:19:27;;;;;;;8.00;3.10;;;3.90;99.90;;;;;;5078455;28;20229;-51
2023/04/30 02:21:53;;;;;;;9.23;3.77;;;3.80;99.90;;;;;;5066784;28;20255;-53
2023/04/30 02:24:21;;;;;;;7.07;3.30;;;3.70;99.90;;;;;;5070793;28;20613;-50
2023/04/30 02:26:49;;;;;;;10.20;3.87;;;3.70;99.90;;;;;;5078621;28;20206;-54
2023/04/30 02:29:16;;;;;;;11.13;2.90;;;3.60;99.90;;;;;;5072340;28;20229;-50
2023/04/30 02:31:43;;;;;;;5.73;3.37;;;3.60;99.90;;;;;;5083758;28;20269;-51
2023/04/30 02:34:12;;;;;;;5.50;2.93;;;3.60;99.90;;;;;;5086130;28;20205;-52
2023/04/30 02:36:39;;;;;;;6.27;3.57;;;3.60;99.90;;;;;;5068345;28;20228;-48
2023/04/30 02:39:07;;;;;;;6.50;3.20;;;3.60;99.90;;;;;;5083644;28;20190;-52
2023/04/30 02:41:35;;;;;;;4.70;3.07;;;3.50;99.90;;;;;;5076660;28;20202;-52
2023/04/30 02:44:02;;;;;;;9.00;3.47;;;3.40;99.90;;;;;;5079629;28;20861;-50
2023/04/30 02:46:29;;;;;;;8.80;3.73;;;3.40;99.90;;;;;;5079237;28;20220;-56
2023/04/30 02:48:56;;;;;;;9.33;3.73;;;3.40;99.90;;;;;;5081244;28;20267;-50
2023/04/30 02:51:24;;;;;;;8.77;3.63;;;3.40;99.90;;;;;;5069474;28;20688;-47
2023/04/30 02:53:51;;;;;;;9.60;3.40;;;3.40;99.90;;;;;;5079586;28;20181;-48
2023/04/30 02:56:18;;;;;;;5.23;3.50;;;3.40;99.90;;;;;;5078278;28;20205;-51
2023/04/30 02:58:45;;;;;;;6.33;3.20;;;3.40;99.90;;;;;;5080644;28;20596;-51
2023/04/30 03:01:14;;;;;;;8.40;3.47;;;3.40;99.90;;;;;;5077682;28;20217;-50
2023/04/30 03:03:41;;;;;;;9.20;4.20;;;3.40;99.90;;;;;;5082197;28;20190;-50
2023/04/30 03:06:08;;;;;;;6.53;3.10;;;3.40;99.90;;;;;;5085055;28;20217;-52
2023/04/30 03:08:36;;;;;;;7.63;3.60;;;3.30;99.90;;;;;;5062413;28;20676;-48
2023/04/30 03:11:03;;;;;;;4.73;3.17;;;3.30;99.90;;;;;;5076120;28;20186;-50
2023/04/30 03:13:30;;;;;;;6.30;3.40;;;3.30;99.90;;;;;;5080668;28;20678;-52
2023/04/30 03:15:58;;;;;;;6.90;3.30;;;3.30;99.90;;;;;;5070813;28;20202;-51
2023/04/30 03:18:25;;;;;;;10.40;3.60;;;3.30;99.90;;;;;;5078582;28;20194;-53
2023/04/30 03:20:53;;;;;;;9.27;3.63;;;3.30;99.90;;;;;;5083872;28;20194;-52
2023/04/30 03:23:20;;;;;;;11.63;4.17;;;3.30;99.90;;;;;;5055478;28;20283;-52
2023/04/30 03:25:49;;;;;;;5.70;3.23;;;3.20;99.90;;;;;;5079693;28;20618;-55
2023/04/30 03:28:16;;;;;;;7.00;3.77;;;3.20;99.90;;;;;;5081429;28;20194;-53
2023/04/30 03:30:44;;;;;;;6.80;3.63;;;3.20;99.90;;;;;;5079099;28;20194;-49
2023/04/30 03:33:11;;;;;;;10.50;3.60;;;3.20;99.90;;;;;;5083235;28;20273;-50
2023/04/30 03:35:38;;;;;;;5.63;3.30;;;3.10;99.90;;;;;;5079868;28;20204;-50
2023/04/30 03:38:05;;;;;;;4.73;3.77;;;3.10;99.90;;;;;;5059627;28;20274;-51
2023/04/30 03:40:32;;;;;;;6.37;3.97;;;3.10;99.90;;;;;;5082177;28;20198;-53
2023/04/30 03:43:01;;;;;;;7.60;3.40;;;3.00;99.90;;;;;;5085312;28;20648;-54
2023/04/30 03:45:28;;;;;;;7.00;4.17;;;3.00;99.90;;;;;;5074735;28;20216;-52
2023/04/30 03:47:55;;;;;;;4.13;3.10;;;3.00;99.90;;;;;;5078668;28;20222;-55
2023/04/30 03:50:22;;;;;;;4.03;3.27;;;3.00;99.90;;;;;;5074923;28;20190;-51
2023/04/30 03:52:49;;;;;;;6.70;3.13;;;2.90;99.90;;;;;;5078036;28;20191;-50
2023/04/30 03:55:16;;;;;;;7.13;3.97;;;2.90;99.90;;;;;;5063448;28;20202;-48
2023/04/30 03:57:43;;;;;;;7.00;4.07;;;2.90;99.90;;;;;;5082825;28;20217;-52
2023/04/30 04:00:13;;;;;;;8.23;3.80;;;2.90;99.90;;;;;;5079086;28;20197;-47
2023/04/30 04:02:43;;;;;;;8.23;3.63;;;2.80;99.90;;;;;;5072849;28;20217;-52
2023/04/30 04:05:11;;;;;;;8.13;3.63;;;2.90;99.90;;;;;;5073467;28;20206;-49
2023/04/30 04:07:38;;;;;;;7.57;3.57;;;2.90;99.90;;;;;;5082737;28;20217;-50
2023/04/30 04:10:05;;;;;;;5.73;3.60;;;2.90;99.90;;;;;;5067639;28;20206;-51
2023/04/30 04:12:32;;;;;;;6.17;3.33;;;2.90;99.90;;;;;;5073570;28;20296;-52
2023/04/30 04:15:00;;;;;;;7.10;4.00;;;2.90;99.90;;;;;;5079033;28;21020;-49
2023/04/30 04:17:29;;;;;;;6.77;4.00;;;2.90;99.90;;;;;;5071346;28;20310;-52
2023/04/30 04:19:56;;;;;;;5.30;3.33;;;2.90;99.90;;;;;;5067104;28;20232;-53
2023/04/30 04:22:23;;;;;;;3.70;3.33;;;2.90;99.90;;;;;;5075674;28;20202;-52
2023/04/30 04:24:50;;;;;;;5.53;4.00;;;2.90;99.90;;;;;;5063065;28;20309;-49
2023/04/30 04:27:20;;;;;;;7.57;3.33;;;2.90;99.90;;;;;;5079522;28;20206;-50
2023/04/30 04:29:47;;;;;;;8.13;3.90;;;2.90;99.90;;;;;;5084067;28;20258;-54
2023/04/30 04:32:15;;;;;;;9.37;4.67;;;2.90;99.90;;;;;;5067122;28;20282;-49
2023/04/30 04:34:44;;;;;;;7.17;4.37;;;2.90;99.90;;;;;;5071817;28;20254;-52
2023/04/30 04:37:12;;;;;;;6.87;3.67;;;2.90;99.90;;;;;;5070937;28;20228;-54
2023/04/30 04:39:39;;;;;;;6.70;4.10;;;3.00;99.90;;;;;;5060687;28;20259;-48
2023/04/30 04:42:05;;;;;;;6.43;4.03;;;3.00;99.90;;;;;;5080729;28;20201;-52
2023/04/30 04:44:32;;;;;;;6.13;3.90;;;3.00;99.90;;;;;;5075783;28;20217;-48
2023/04/30 04:46:59;;;;;;;7.00;4.27;;;3.00;99.90;;;;;;5062086;28;20218;-47
2023/04/30 04:49:27;;;;;;;6.40;4.50;;;3.00;99.90;;;;;;5074653;28;20190;-50
2023/04/30 04:51:55;;;;;;;9.33;3.67;;;3.00;99.90;;;;;;5080526;28;20280;-53
2023/04/30 04:54:22;;;;;;;7.27;3.90;;;3.10;99.90;;;;;;5060716;28;20210;-47
2023/04/30 04:56:50;;;;;;;10.30;4.33;;;3.10;99.90;;;;;;5068474;28;21160;-51
2023/04/30 04:59:17;;;;;;;8.30;4.10;;;3.10;99.90;;;;;;5066667;28;20197;-50
2023/04/30 05:01:45;;;;;;;8.23;5.20;;;3.20;99.90;;;;;;5081294;28;20320;-48
2023/04/30 05:04:12;;;;;;;6.70;4.17;;;3.20;99.90;;;;;;5076973;28;20537;-48
2023/04/30 05:06:41;;;;;;;14.80;4.47;;;3.20;99.90;;;;;;5072061;28;20211;-53
2023/04/30 05:09:09;;;;;;;9.13;4.67;;;3.30;99.90;;;;;;5062619;28;20226;-49
2023/04/30 05:11:35;;;;;;;11.97;4.27;;;3.30;99.90;;;;;;5060024;28;20206;-50
2023/04/30 05:14:03;;;;;;;6.83;3.90;;;3.30;99.90;;;;;;5069472;28;20856;-52
2023/04/30 05:16:30;;;;;;;8.60;4.80;;;3.50;99.90;;;;;;5066809;28;20214;-53
2023/04/30 05:18:56;;;;;;;9.63;4.80;;;3.50;99.90;;;;;;5076183;28;20205;-50
2023/04/30 05:21:24;;;;;;;6.50;4.00;;;3.60;99.90;;;;;;5070889;28;20198;-52
2023/04/30 05:23:51;;;;;;;6.50;4.00;;;3.70;99.90;;;;;;5070455;28;20198;-50
2023/04/30 05:26:22;;;;;;;6.27;3.90;;;3.80;99.90;;;;;;5052847;28;20222;-50
2023/04/30 05:28:51;;;;;;;8.03;4.10;;;3.90;99.90;;;;;;5068242;28;20199;-52
2023/04/30 05:31:17;;;;;;;8.43;4.20;;;4.00;99.90;;;;;;5068593;28;20287;-49
2023/04/30 05:33:44;;;;;;;8.90;4.23;;;4.10;99.90;;;;;;5077626;28;20690;-48
2023/04/30 05:36:11;;;;;;;10.97;4.40;;;4.20;99.90;;;;;;5076658;28;20581;-49
2023/04/30 05:38:38;;;;;;;8.63;4.47;;;4.30;99.90;;;;;;5082230;28;20175;-51
2023/04/30 05:41:05;;;;;;;9.67;3.97;;;4.40;99.90;;;;;;5073131;28;20615;-46
2023/04/30 05:43:33;;;;;;;8.23;3.77;;;4.50;99.90;;;;;;5055863;28;20198;-52
2023/04/30 05:46:00;;;;;;;9.07;4.47;;;4.60;99.90;;;;;;5071395;28;20217;-50
2023/04/30 05:48:27;;;;;;;8.13;3.83;;;4.70;99.90;;;;;;5073578;28;20344;-51
2023/04/30 05:50:54;;;;;;;7.50;4.00;;;4.70;99.90;;;;;;5075018;28;20585;-53
2023/04/30 05:53:21;;;;;;;9.33;3.53;;;4.80;99.90;;;;;;5072577;28;20904;-51
2023/04/30 05:55:48;;;;;;;8.40;3.83;;;4.90;99.90;;;;;;5071234;28;20202;-51
2023/04/30 05:58:15;;;;;;;10.93;4.33;;;5.00;99.90;;;;;;5062761;28;20937;-52
2023/04/30 06:01:02;;;;;;;8.43;3.67;;;5.10;99.90;;;;;;5076830;28;20287;-50
2023/04/30 06:03:29;;;;;;;7.27;4.10;;;5.20;99.90;;;;;;5070755;28;20206;-52
2023/04/30 06:05:56;;;;;;;8.07;4.07;;;5.30;99.90;;;;;;5083005;28;20214;-50
2023/04/30 06:08:23;;;;;;;10.60;4.03;;;5.40;99.90;;;;;;5068378;28;20194;-49
2023/04/30 06:10:51;;;;;;;10.73;3.60;;;5.50;99.90;;;;;;5080195;28;20198;-49
2023/04/30 06:13:17;;;;;;;7.03;3.40;;;5.60;99.90;;;;;;5052914;28;20201;-49
2023/04/30 06:15:44;;;;;;;8.63;3.50;;;5.70;99.90;;;;;;5085437;28;20198;-49
2023/04/30 06:18:13;;;;;;;7.83;3.37;;;5.80;99.90;;;;;;5076083;28;20222;-49
2023/04/30 06:20:40;;;;;;;9.03;3.63;;;5.90;99.90;;;;;;5073003;28;20210;-48
2023/04/30 06:23:07;;;;;;;7.40;3.33;;;6.00;99.90;;;;;;5058468;28;20195;-49
2023/04/30 06:25:34;;;;;;;11.53;3.03;;;6.20;99.90;;;;;;5077894;28;20331;-51
2023/04/30 06:28:01;;;;;;;7.37;2.53;;;6.30;99.90;;;;;;5070362;28;20226;-47
2023/04/30 06:30:30;;;;;;;9.77;3.00;;;6.40;99.90;;;;;;5072271;28;20273;-54
2023/04/30 06:32:57;;;;;;;9.40;2.97;;;6.50;99.90;;;;;;5084122;28;20548;-49
2023/04/30 06:35:25;;;;;;;6.43;2.80;;;6.50;99.90;;;;;;5066196;28;20186;-46
2023/04/30 06:38:14;;;;;;;4.60;2.63;;;6.60;99.90;;;;;;5063686;28;20213;-51
2023/04/30 06:40:41;;;;;;;6.77;2.53;;;6.70;99.90;;;;;;5081811;28;20213;-52
2023/04/30 06:43:08;;;;;;;6.00;2.87;;;6.70;99.90;;;;;;5055189;28;20212;-50
2023/04/30 06:45:35;;;;;;;9.10;2.50;;;6.90;99.90;;;;;;5081733;28;20222;-48
2023/04/30 06:48:02;;;;;;;10.20;3.37;;;7.00;99.90;;;;;;5072766;28;20244;-48
2023/04/30 06:50:31;;;;;;;6.30;2.63;;;7.00;99.90;;;;;;5061687;28;20278;-51
2023/04/30 06:52:57;;;;;;;4.40;2.13;;;7.20;99.90;;;;;;5073098;28;20277;-51
2023/04/30 06:55:25;;;;;;;8.33;2.57;;;7.30;99.90;;;;;;5072214;28;20205;-51
2023/04/30 06:57:53;;;;;;;4.30;2.30;;;7.30;99.90;;;;;;5074045;28;20222;-53
2023/04/30 07:00:20;;;;;;;5.87;2.13;;;7.40;99.90;;;;;;5059739;28;20205;-48
2023/04/30 07:03:09;;;;;;;8.23;2.40;;;7.40;99.90;;;;;;5061197;28;20305;-49
2023/04/30 07:05:37;;;;;;;7.70;2.47;;;7.50;99.90;;;;;;5069979;28;20247;-52
2023/04/30 07:08:05;;;;;;;4.37;1.90;;;7.60;99.90;;;;;;5071302;28;20261;-46
2023/04/30 07:10:32;;;;;;;5.97;2.13;;;7.60;99.90;;;;;;5066754;28;20191;-47
2023/04/30 07:13:01;;;;;;;3.77;2.10;;;7.60;99.90;;;;;;5082798;28;20602;-49
2023/04/30 07:15:28;;;;;;;4.00;1.90;;;7.70;99.90;;;;;;5062476;28;20194;-50
2023/04/30 07:17:56;;;;;;;7.30;1.90;;;7.80;99.90;;;;;;5074535;28;20221;-47
2023/04/30 07:20:22;;;;;;;6.23;3.10;;;7.80;99.90;;;;;;5082585;28;20268;-49
2023/04/30 07:22:51;;;;;;;5.43;1.87;;;7.80;99.90;;;;;;5081012;28;20202;-48
2023/04/30 07:25:18;;;;;;;6.43;2.00;;;7.70;99.90;;;;;;5067590;28;20310;-52
2023/04/30 07:27:45;;;;;;;4.03;2.27;;;7.80;99.90;;;;;;5078631;28;20301;-52
2023/04/30 07:30:12;;;;;;;9.90;2.13;;;7.80;99.90;;;;;;5049202;28;20561;-48
2023/04/30 07:32:41;;;;;;;9.73;2.40;;;7.80;99.90;;;;;;5069399;28;20194;-50
2023/04/30 07:35:09;;;;;;;6.47;1.83;;;7.80;99.90;;;;;;5074299;28;20204;-48
2023/04/30 07:37:36;;;;;;;6.37;2.10;;;7.90;99.90;;;;;;5075361;28;20598;-51
2023/04/30 07:40:08;;;;;;;4.77;1.77;;;7.90;99.90;;;;;;5075373;28;20197;-52
2023/04/30 07:42:35;;;;;;;5.23;1.80;;;8.00;99.90;;;;;;5075764;28;20659;-48
2023/04/30 07:45:03;;;;;;;4.63;2.03;;;8.00;99.90;;;;;;5073416;28;20193;-48
2023/04/30 07:47:29;;;;;;;6.93;2.30;;;8.00;99.90;;;;;;5053025;28;20263;-51
2023/04/30 07:49:57;;;;;;;8.37;2.30;;;8.10;99.90;;;;;;5083020;28;20206;-50
2023/04/30 07:52:24;;;;;;;4.53;2.40;;;8.20;99.90;;;;;;5073478;28;20269;-49
2023/04/30 07:54:51;;;;;;;3.67;1.93;;;8.20;99.90;;;;;;5075585;28;20208;-52
2023/04/30 07:57:19;;;;;;;5.47;2.30;;;8.20;99.90;;;;;;5067261;28;20230;-47
2023/04/30 07:59:46;;;;;;;5.53;2.17;;;8.20;99.90;;;;;;5069153;28;20307;-49
2023/04/30 08:02:13;;;;;;;10.17;2.30;;;8.40;99.90;;;;;;5051186;28;20590;-53
2023/04/30 08:04:39;;;;;;;2.93;2.00;;;8.50;99.90;;;;;;5070418;28;20210;-54
2023/04/30 08:07:07;;;;;;;6.87;2.00;;;8.70;99.90;;;;;;5064313;28;20758;-51
2023/04/30 08:09:34;;;;;;;4.37;2.20;;;8.90;99.90;;;;;;5078823;28;20254;-50
2023/04/30 08:12:03;;;;;;;4.20;2.10;;;8.90;99.90;;;;;;5080024;28;20198;-53
2023/04/30 08:14:32;;;;;;;7.17;2.20;;;8.90;99.90;;;;;;5062044;28;20194;-53
2023/04/30 08:17:01;;;;;;;7.83;2.43;;;8.90;99.90;;;;;;5064958;28;20588;-50
2023/04/30 08:19:28;;;;;;;3.53;2.00;;;9.00;99.90;;;;;;5073121;28;21001;-51
2023/04/30 08:21:55;;;;;;;2.97;1.77;;;9.10;99.90;;;;;;5077096;28;20195;-49
2023/04/30 08:24:21;;;;;;;4.60;2.20;;;9.10;99.90;;;;;;5073534;28;20190;-51
2023/04/30 08:26:48;;;;;;;2.57;1.87;;;9.20;99.90;;;;;;5066558;28;20795;-50
2023/04/30 08:29:14;;;;;;;3.50;1.70;;;9.30;99.90;;;;;;5059856;28;20202;-54
2023/04/30 08:31:43;;;;;;;9.87;2.30;;;9.50;99.90;;;;;;5079197;28;20240;-52
2023/04/30 08:34:10;;;;;;;3.90;2.20;;;9.50;99.90;;;;;;5057225;28;20213;-54
2023/04/30 08:36:38;;;;;;;4.90;2.30;;;9.50;99.90;;;;;;5072266;28;20226;-53
2023/04/30 08:39:06;;;;;;;3.97;1.97;;;9.50;99.90;;;;;;5071375;28;20267;-54
2023/04/30 08:41:34;;;;;;;4.20;1.80;;;9.70;99.90;;;;;;5066304;28;20209;-47
2023/04/30 08:44:02;;;;;;;8.00;2.40;;;9.60;99.90;;;;;;5078733;28;20298;-49
2023/04/30 08:46:32;;;;;;;7.97;2.50;;;9.70;99.90;;;;;;5071290;28;20366;-50
2023/04/30 08:49:00;;;;;;;3.00;1.90;;;9.70;99.90;;;;;;5060401;28;20658;-51
2023/04/30 08:51:31;;;;;;;6.80;2.50;;;9.80;99.90;;;;;;5076210;28;20225;-52
2023/04/30 08:53:58;;;;;;;6.70;2.07;;;9.90;99.90;;;;;;5080454;28;20591;-52
2023/04/30 08:56:25;;;;;;;5.30;2.90;;;9.80;99.90;;;;;;5064982;28;20233;-50
2023/04/30 08:58:52;;;;;;;10.20;2.13;;;9.80;99.90;;;;;;5069679;28;21481;-54
2023/04/30 09:01:20;;;;;;;3.13;1.70;;;9.80;99.90;;;;;;5074424;28;20198;-54
2023/04/30 09:03:46;;;;;;;6.93;3.07;;;9.70;99.90;;;;;;5057846;28;20266;-48
2023/04/30 09:06:17;;;;;;;4.77;2.50;;;9.70;99.90;;;;;;5080611;28;20704;-54
2023/04/30 09:08:46;;;;;;;6.23;2.13;;;9.70;99.90;;;;;;5065951;28;20532;-52
2023/04/30 09:11:23;;;;;;;7.53;1.90;;;9.90;99.90;;;;;;5077578;28;20218;-47
2023/04/30 09:13:51;;;;;;;7.87;2.63;;;9.80;99.90;;;;;;5074531;28;20869;-52
2023/04/30 09:16:19;;;;;;;7.93;1.93;;;9.80;99.90;;;;;;5071878;28;20233;-57
2023/04/30 09:18:47;;;;;;;6.93;2.10;;;9.70;99.90;;;;;;5071620;28;20863;-47
2023/04/30 09:21:14;;;;;;;3.70;2.00;;;9.90;99.90;;;;;;5055832;28;20210;-49
2023/04/30 09:23:59;;;;;;;5.47;1.83;;;9.80;99.70;;;;;;5067741;28;20209;-48
2023/04/30 09:26:32;;;;;;;4.90;2.03;;;10.00;99.30;;;;;;5074260;28;20241;-57
2023/04/30 09:29:06;;;;;;;9.87;1.93;;;10.10;99.90;;;;;;5075984;28;20225;-50
2023/04/30 09:31:34;;;;;;;7.27;2.73;;;10.00;99.60;;;;;;5069790;28;20732;-56
2023/04/30 09:34:01;;;;;;;4.27;1.77;;;10.10;99.60;;;;;;5066271;28;20677;-53
2023/04/30 09:36:28;;;;;;;4.33;2.13;;;10.20;99.20;;;;;;5047441;28;20219;-56
2023/04/30 09:38:55;;;;;;;8.77;2.50;;;10.00;98.90;;;;;;5068759;28;20217;-56
2023/04/30 09:41:25;;;;;;;5.13;2.33;;;10.00;99.20;;;;;;5076357;28;20178;-57
2023/04/30 09:43:53;;;;;;;4.73;2.00;;;10.10;99.10;;;;;;5069931;28;20285;-55
2023/04/30 09:46:22;;;;;;;3.63;2.20;;;10.10;99.10;;;;;;5072851;28;20252;-51
2023/04/30 09:48:57;;;;;;;7.27;1.87;;;10.10;99.50;;;;;;5057525;28;20227;-57
2023/04/30 09:51:24;;;;;;;4.47;1.57;;;10.10;99.60;;;;;;5051698;28;20211;-57
2023/04/30 09:53:51;;;;;;;5.20;2.10;;;10.20;98.90;;;;;;5072593;28;20676;-55
2023/04/30 09:56:21;;;;;;;5.20;1.90;;;10.20;98.50;;;;;;5071724;28;20716;-54
2023/04/30 09:58:51;;;;;;;3.27;1.80;;;10.30;98.50;;;;;;5070533;28;20202;-56
2023/04/30 10:01:19;;;;;;;4.63;1.87;;;10.30;97.60;;;;;;5067792;28;20688;-56
2023/04/30 10:03:47;;;;;;;6.67;2.13;;;10.20;97.40;;;;;;5059834;28;20202;-55
2023/04/30 10:06:16;;;;;;;3.90;1.90;;;10.20;98.10;;;;;;5074813;28;20640;-56
2023/04/30 10:08:45;;;;;;;6.80;2.37;;;10.40;97.90;;;;;;5053469;28;20218;-50
2023/04/30 10:11:37;;;;;;;7.03;2.47;;;10.40;99.90;;;;;;5064597;28;20209;-49
2023/04/30 10:14:10;;;;;;;6.77;2.17;;;10.50;99.90;;;;;;5064730;28;20202;-51
2023/04/30 10:16:43;;;;;;;4.50;1.93;;;10.60;99.90;;;;;;5055963;28;20889;-54
2023/04/30 10:19:13;;;;;;;3.50;1.97;;;10.70;99.90;;;;;;5063509;28;20210;-53
2023/04/30 10:21:42;;;;;;;6.27;2.10;;;10.80;97.30;;;;;;5070972;28;20226;-50
2023/04/30 10:24:10;;;;;;;4.07;2.20;;;10.90;97.40;;;;;;5061743;28;20217;-54
2023/04/30 10:26:38;;;;;;;4.50;2.13;;;10.70;96.70;;;;;;5072645;28;20934;-48
2023/04/30 10:29:07;;;;;;;6.77;2.20;;;10.80;97.20;;;;;;5073210;28;20241;-48
2023/04/30 10:31:35;;;;;;;6.73;1.80;;;10.90;97.50;;;;;;5073219;28;20203;-50
2023/04/30 10:34:10;;;;;;;2.53;1.83;;;11.00;97.10;;;;;;5074831;28;20206;-50
2023/04/30 10:36:43;;;;;;;5.63;2.13;;;11.00;97.30;;;;;;5071145;28;20224;-51
2023/04/30 10:39:11;;;;;;;3.73;1.90;;;10.90;97.20;;;;;;5061020;28;20214;-53
2023/04/30 10:41:38;;;;;;;2.57;1.63;;;11.00;97.10;;;;;;5073859;28;20190;-48
2023/04/30 10:44:08;;;;;;;6.10;1.87;;;11.20;96.00;;;;;;5067071;28;20221;-48
2023/04/30 10:46:36;;;;;;;4.70;2.17;;;11.10;95.40;;;;;;5064284;28;20518;-52
2023/04/30 10:49:02;;;;;;;4.10;1.97;;;11.10;95.50;;;;;;5069891;28;20198;-50
2023/04/30 10:51:50;;;;;;;4.37;2.17;;;11.10;95.30;;;;;;5072150;28;20197;-46
2023/04/30 10:54:24;;;;;;;4.27;1.80;;;11.00;94.00;;;;;;5059221;28;20525;-49
2023/04/30 10:56:52;;;;;;;6.30;2.10;;;10.90;94.30;;;;;;5069270;28;20205;-50
2023/04/30 10:59:20;;;;;;;4.50;2.33;;;10.90;95.10;;;;;;5065247;28;20290;-49
2023/04/30 11:01:58;;;;;;;5.20;1.90;;;11.00;94.80;;;;;;5079578;28;20190;-52
2023/04/30 11:04:26;;;;;;;3.27;2.17;;;11.10;95.60;;;;;;5073454;28;20220;-50
2023/04/30 11:07:03;;;;;;;3.17;2.17;;;11.10;95.50;;;;;;5069612;28;20210;-52
2023/04/30 11:09:39;;;;;;;4.90;2.33;;;11.20;94.60;;;;;;5064117;28;20225;-53
2023/04/30 11:12:12;;;;;;;6.37;2.20;;;11.10;94.20;;;;;;5068415;28;20284;-54
2023/04/30 11:14:42;;;;;;;3.10;2.00;;;11.00;95.00;;;;;;5065789;28;20668;-54
2023/04/30 11:17:12;;;;;;;5.13;1.90;;;11.00;95.20;;;;;;5081054;28;20225;-51
2023/04/30 11:19:47;;;;;;;4.70;1.90;;;11.20;95.50;;;;;;5071948;28;20213;-54
2023/04/30 11:22:19;;;;;;;6.70;2.20;;;11.40;94.90;;;;;;5074594;28;20210;-49
2023/04/30 11:24:54;;;;;;;6.83;2.40;;;11.50;94.10;;;;;;5046325;28;20198;-49
2023/04/30 11:27:23;;;;;;;2.97;2.00;;;11.60;94.00;;;;;;5069233;28;20482;-55
2023/04/30 11:29:52;;;;;;;3.97;1.90;;;11.50;93.80;;;;;;5075263;28;20210;-54
2023/04/30 11:32:21;;;;;;;5.43;1.90;;;11.50;93.00;;;;;;5073063;28;20554;-56
2023/04/30 11:34:48;;;;;;;5.03;1.93;;;11.50;93.70;;;;;;5076062;28;20213;-50
2023/04/30 11:37:20;;;;;;;5.30;2.10;;;11.70;93.50;;;;;;5074591;28;20225;-56
2023/04/30 11:39:48;;;;;;;3.80;1.80;;;11.70;94.10;;;;;;5059077;28;20213;-50
2023/04/30 11:42:17;;;;;;;6.20;2.10;;;12.00;93.70;;;;;;5074025;28;20205;-55
2023/04/30 11:44:45;;;;;;;4.70;2.10;;;12.10;93.30;;;;;;5072827;28;20209;-53
2023/04/30 11:47:14;;;;;;;2.43;2.23;;;12.10;92.70;;;;;;5077521;28;20225;-55
2023/04/30 11:49:41;;;;;;;6.93;2.43;;;11.90;93.00;;;;;;5068411;28;20291;-52
2023/04/30 11:52:08;;;;;;;2.90;2.20;;;11.90;94.00;;;;;;5076787;28;20206;-57
2023/04/30 11:54:36;;;;;;;4.27;2.20;;;12.20;93.70;;;;;;5046263;28;20462;-49
2023/04/30 11:57:04;;;;;;;3.70;2.20;;;12.30;93.70;;;;;;5073376;28;20225;-52
2023/04/30 11:59:32;;;;;;;4.97;2.33;;;12.40;93.10;;;;;;5077301;28;20194;-48
2023/04/30 12:01:59;;;;;;;6.97;2.83;;;12.40;92.90;;;;;;5073731;28;20216;-49
2023/04/30 12:04:27;;;;;;;3.80;2.40;;;12.30;92.70;;;;;;5070121;28;20190;-50
2023/04/30 12:06:54;;;;;;;4.83;2.50;;;12.30;93.30;;;;;;5073471;28;20301;-54
2023/04/30 12:09:22;;;;;;;4.63;2.57;;;12.50;93.20;;;;;;5069369;28;20671;-56
2023/04/30 12:11:49;;;;;;;7.67;2.70;;;12.60;93.30;;;;;;5063827;28;20206;-45
2023/04/30 12:14:16;;;;;;;6.17;3.30;;;12.60;93.20;;;;;;5074506;28;20206;-54
2023/04/30 12:16:47;;;;;;;4.00;2.60;;;12.60;92.90;;;;;;5069333;28;20213;-48
2023/04/30 12:19:15;;;;;;;3.47;2.13;;;12.70;93.30;;;;;;5069120;28;20221;-54
2023/04/30 12:21:46;;;;;;;4.00;2.53;;;12.90;93.60;;;;;;5070687;28;20205;-53
2023/04/30 12:24:13;;;;;;;7.73;2.53;;;13.00;92.90;;;;;;5069682;28;20198;-56
2023/04/30 12:26:41;;;;;;;11.03;3.13;;;13.00;93.20;;;;;;5052807;28;21160;-52
2023/04/30 12:29:09;;;;;;;9.77;3.33;;;13.20;93.60;;;;;;5080556;28;20202;-55
2023/04/30 12:31:37;;;;;;;10.00;2.57;;;13.20;93.10;;;;;;5061951;28;20222;-50
2023/04/30 12:34:05;;;;;;;4.60;2.40;;;13.30;93.30;;;;;;5073846;28;20615;-56
2023/04/30 12:36:33;;;;;;;3.93;2.13;;;13.40;92.50;;;;;;5070519;28;20205;-50
2023/04/30 12:39:07;;;;;;;5.17;2.50;;;13.40;92.40;;;;;;5077198;28;20182;-51
2023/04/30 12:41:37;;;;;;;3.97;2.33;;;13.40;92.20;;;;;;5066298;28;20205;-55
2023/04/30 12:44:17;;;;;;;5.90;3.03;;;13.50;92.30;;;;;;5057579;28;20263;-52
2023/04/30 12:46:45;;;;;;;4.60;2.03;;;13.60;91.90;;;;;;5058443;28;23911;-52
2023/04/30 12:49:11;;;;;;;4.27;2.40;;;13.60;91.40;;;;;;5070213;28;20204;-56
2023/04/30 12:51:40;;;;;;;4.27;2.30;;;13.50;90.20;;;;;;5069878;28;20987;-55
2023/04/30 12:54:08;;;;;;;5.20;2.30;;;13.50;90.90;;;;;;5074716;28;20701;-54
2023/04/30 12:56:34;;;;;;;4.77;2.50;;;13.70;91.10;;;;;;5076945;28;20213;-49
2023/04/30 12:59:02;;;;;;;3.33;1.80;;;13.80;91.30;;;;;;5057951;28;20228;-52
2023/04/30 13:01:29;;;;;;;5.03;2.50;;;14.00;90.60;;;;;;5059265;28;20217;-50